Weather at Domodedovo International Airport

Public forecast

Using degrees Celsius for public forecast. Weather courtesy of forecast.io.

Current aviation weather report (METAR) for Domodedovo International Airport

Report is more than 6 hours old.

2022/11/14 15:30 (retrieved 2 years ago)

UUDD 141530Z 32005MPS 9999 FEW034 M01/M06 Q1024 R32L/CLRD60 NOSIG

Aviation forecast (TAF) for Domodedovo International Airport

Forecast is more than 12 hours old.

2023/02/22 21:21 (retrieved 1 year ago)

TAF UUDD 221952Z 2221/2403 32006G12MPS 6000 FEW008 BKN016 TXM10/2312Z TNM17/2305Z BECMG 2312/2314 24006G13MPS